createdAt,value
2023-02-27T00:00:12.012Z,55.01
2023-02-27T00:00:33.086Z,55.00
2023-02-27T00:00:54.137Z,55.05
2023-02-27T00:01:15.210Z,55.03
2023-02-27T00:01:36.266Z,55.02
2023-02-27T00:01:57.325Z,55.03
2023-02-27T00:02:18.421Z,55.00
2023-02-27T00:02:39.479Z,55.01
2023-02-27T00:03:00.592Z,55.03
2023-02-27T00:03:21.656Z,55.03
2023-02-27T00:03:42.743Z,55.02
2023-02-27T00:04:03.870Z,55.02
2023-02-27T00:04:24.920Z,55.06
2023-02-27T00:04:45.987Z,55.05
2023-02-27T00:05:07.045Z,55.04
2023-02-27T00:05:28.120Z,55.07
2023-02-27T00:05:49.276Z,55.04
2023-02-27T00:06:10.361Z,55.12
2023-02-27T00:06:31.436Z,55.09
2023-02-27T00:06:52.488Z,55.13
2023-02-27T00:07:13.545Z,55.11
2023-02-27T00:07:34.596Z,55.12
2023-02-27T00:07:55.646Z,55.14
2023-02-27T00:08:16.707Z,55.19
2023-02-27T00:08:37.802Z,55.16
2023-02-27T00:08:58.877Z,55.15
2023-02-27T00:09:20.009Z,55.17
2023-02-27T00:09:41.058Z,55.13
2023-02-27T00:10:02.098Z,55.15
2023-02-27T00:10:23.152Z,55.18
2023-02-27T00:10:44.235Z,55.19
2023-02-27T00:11:05.295Z,55.19
2023-02-27T00:11:26.864Z,55.19
2023-02-27T00:11:48.111Z,55.24
2023-02-27T00:12:09.182Z,55.19
2023-02-27T00:12:30.224Z,55.22
2023-02-27T00:12:51.289Z,55.25
2023-02-27T00:13:12.352Z,55.28
2023-02-27T00:13:33.399Z,55.31
2023-02-27T00:13:54.465Z,55.37
2023-02-27T00:14:15.554Z,55.44
2023-02-27T00:14:36.600Z,55.47
2023-02-27T00:14:57.647Z,55.45
2023-02-27T00:15:18.732Z,55.44
2023-02-27T00:15:39.792Z,55.47
2023-02-27T00:16:00.946Z,55.44
2023-02-27T00:16:22.041Z,55.43
2023-02-27T00:16:43.104Z,55.43
2023-02-27T00:17:04.176Z,55.43
2023-02-27T00:17:25.218Z,55.42
2023-02-27T00:17:46.281Z,55.41
2023-02-27T00:18:07.380Z,55.49
2023-02-27T00:18:28.473Z,55.52
2023-02-27T00:18:49.500Z,55.55
2023-02-27T00:19:10.559Z,55.60
2023-02-27T00:19:31.643Z,55.58
2023-02-27T00:19:52.711Z,55.54
2023-02-27T00:20:13.758Z,55.53
2023-02-27T00:20:34.811Z,55.55
2023-02-27T00:20:55.854Z,55.57
2023-02-27T00:21:16.963Z,55.57
2023-02-27T00:21:38.040Z,55.54
2023-02-27T00:21:59.079Z,55.54
2023-02-27T00:22:20.129Z,55.61
2023-02-27T00:22:41.187Z,55.64
2023-02-27T00:23:02.237Z,55.64
2023-02-27T00:23:23.312Z,55.67
2023-02-27T00:23:44.356Z,55.60
2023-02-27T00:24:05.419Z,55.65
2023-02-27T00:24:26.489Z,55.65
2023-02-27T00:24:47.535Z,55.64
2023-02-27T00:25:08.611Z,55.64
2023-02-27T00:25:29.649Z,55.63
2023-02-27T00:25:50.714Z,55.67
2023-02-27T00:26:11.848Z,55.68
2023-02-27T00:26:32.880Z,55.72
2023-02-27T00:26:53.968Z,55.73
2023-02-27T00:27:15.045Z,55.71
2023-02-27T00:27:36.098Z,55.72
2023-02-27T00:27:57.159Z,55.71
2023-02-27T00:28:18.223Z,55.70
2023-02-27T00:28:39.261Z,55.71
2023-02-27T00:29:00.334Z,55.73
2023-02-27T00:29:21.416Z,55.79
2023-02-27T00:29:42.460Z,55.87
2023-02-27T00:30:03.526Z,55.85
2023-02-27T00:30:24.629Z,55.91
2023-02-27T00:30:45.687Z,55.91
2023-02-27T00:31:06.897Z,55.87
2023-02-27T00:31:28.339Z,55.87
2023-02-27T00:31:49.816Z,55.89
2023-02-27T00:32:10.878Z,55.84
2023-02-27T00:32:31.995Z,55.84
2023-02-27T00:32:53.092Z,55.82
2023-02-27T00:33:14.112Z,55.85
2023-02-27T00:33:35.209Z,55.81
2023-02-27T00:33:56.237Z,55.83
2023-02-27T00:34:17.332Z,55.84
2023-02-27T00:34:38.365Z,55.85
2023-02-27T00:34:59.476Z,55.87
2023-02-27T00:35:20.548Z,55.88
2023-02-27T00:35:41.570Z,55.88
2023-02-27T00:36:02.660Z,55.90
2023-02-27T00:36:23.707Z,55.92
2023-02-27T00:36:44.792Z,55.92
2023-02-27T00:37:05.854Z,55.92
2023-02-27T00:37:26.997Z,55.97
2023-02-27T00:37:48.023Z,55.97
2023-02-27T00:38:09.111Z,55.99
2023-02-27T00:38:30.155Z,56.04
2023-02-27T00:38:51.232Z,55.99
2023-02-27T00:39:12.285Z,56.04
2023-02-27T00:39:33.358Z,56.03
2023-02-27T00:39:54.406Z,56.02
2023-02-27T00:40:15.463Z,56.06
2023-02-27T00:40:36.562Z,56.01
2023-02-27T00:40:57.592Z,56.01
2023-02-27T00:41:18.669Z,56.06
2023-02-27T00:41:39.751Z,56.06
2023-02-27T00:42:00.789Z,56.06
2023-02-27T00:42:21.886Z,56.06
2023-02-27T00:42:42.948Z,56.03
2023-02-27T00:43:03.994Z,56.04
2023-02-27T00:43:25.065Z,56.09
2023-02-27T00:43:46.119Z,56.09
2023-02-27T00:44:07.194Z,56.09
2023-02-27T00:44:28.259Z,56.13
2023-02-27T00:44:49.327Z,56.13
2023-02-27T00:45:10.385Z,56.12
2023-02-27T00:45:31.442Z,56.14
2023-02-27T00:45:52.509Z,56.15
2023-02-27T00:46:13.678Z,56.18
2023-02-27T00:46:34.815Z,56.17
2023-02-27T00:46:55.882Z,56.20
2023-02-27T00:47:16.953Z,56.19
2023-02-27T00:47:38.062Z,56.20
2023-02-27T00:47:59.103Z,56.20
2023-02-27T00:48:20.165Z,56.21
2023-02-27T00:48:41.234Z,56.22
2023-02-27T00:49:02.310Z,56.21
2023-02-27T00:49:23.526Z,56.24
2023-02-27T00:49:44.581Z,56.22
2023-02-27T00:50:05.672Z,56.29
2023-02-27T00:50:26.721Z,56.25
2023-02-27T00:50:47.793Z,56.24
2023-02-27T00:51:08.829Z,56.26
2023-02-27T00:51:29.894Z,56.31
2023-02-27T00:51:51.108Z,56.26
2023-02-27T00:52:12.153Z,56.28
2023-02-27T00:52:33.208Z,56.30
2023-02-27T00:52:54.312Z,56.41
2023-02-27T00:53:15.405Z,56.40
2023-02-27T00:53:36.481Z,56.44
2023-02-27T00:53:57.544Z,56.43
2023-02-27T00:54:18.612Z,56.43
2023-02-27T00:54:39.661Z,56.46
2023-02-27T00:55:00.803Z,56.49
2023-02-27T00:55:21.826Z,56.51
2023-02-27T00:55:42.890Z,56.51
2023-02-27T00:56:03.965Z,56.52
2023-02-27T00:56:25.009Z,56.55
2023-02-27T00:56:46.072Z,56.53
2023-02-27T00:57:07.133Z,56.51
2023-02-27T00:57:28.227Z,56.49
2023-02-27T00:57:49.309Z,56.46
2023-02-27T00:58:10.442Z,56.45
2023-02-27T00:58:31.496Z,56.46
2023-02-27T00:58:52.577Z,56.43
2023-02-27T00:59:13.636Z,56.45
2023-02-27T00:59:34.699Z,56.45
2023-02-27T00:59:55.768Z,56.48
2023-02-27T01:00:16.827Z,56.47
2023-02-27T01:00:37.992Z,56.46
2023-02-27T01:00:59.087Z,56.47
2023-02-27T01:01:20.137Z,56.49
2023-02-27T01:01:41.208Z,56.47
2023-02-27T01:02:02.288Z,56.49
2023-02-27T01:02:23.381Z,56.47
2023-02-27T01:02:44.470Z,56.46
2023-02-27T01:03:05.496Z,56.51
2023-02-27T01:03:26.582Z,56.49
2023-02-27T01:03:47.663Z,56.55
2023-02-27T01:04:08.716Z,56.54
2023-02-27T01:04:29.778Z,56.59
2023-02-27T01:04:50.842Z,56.55
2023-02-27T01:05:11.916Z,56.58
2023-02-27T01:05:32.974Z,56.58
2023-02-27T01:05:54.030Z,56.61
2023-02-27T01:06:15.094Z,56.60
2023-02-27T01:06:36.182Z,56.59
2023-02-27T01:06:57.249Z,56.59
2023-02-27T01:07:18.291Z,56.65
2023-02-27T01:07:39.349Z,56.63
2023-02-27T01:08:00.407Z,56.61
2023-02-27T01:08:21.490Z,56.58
2023-02-27T01:08:42.551Z,56.61
2023-02-27T01:09:03.618Z,56.59
2023-02-27T01:09:24.688Z,56.61
2023-02-27T01:09:45.737Z,56.61
2023-02-27T01:10:06.803Z,56.61
2023-02-27T01:10:27.864Z,56.61
2023-02-27T01:10:48.923Z,56.61
2023-02-27T01:11:10.025Z,56.64
2023-02-27T01:11:31.049Z,56.63
2023-02-27T01:11:52.145Z,56.67
2023-02-27T01:12:13.205Z,56.67
2023-02-27T01:12:34.262Z,56.67
2023-02-27T01:12:55.313Z,56.65
2023-02-27T01:13:16.407Z,56.67
2023-02-27T01:13:37.459Z,56.69
2023-02-27T01:13:58.578Z,56.74
2023-02-27T01:14:19.602Z,56.76
2023-02-27T01:14:40.664Z,56.78
2023-02-27T01:15:01.724Z,56.73
2023-02-27T01:15:22.782Z,56.76
2023-02-27T01:15:43.842Z,56.76
2023-02-27T01:16:04.938Z,56.72
2023-02-27T01:16:26.004Z,56.77
2023-02-27T01:16:47.059Z,56.74
2023-02-27T01:17:08.108Z,56.76
2023-02-27T01:17:29.156Z,56.76
2023-02-27T01:17:50.206Z,56.73
2023-02-27T01:18:11.267Z,56.75
2023-02-27T01:18:32.330Z,56.73
2023-02-27T01:18:53.399Z,56.74
2023-02-27T01:19:14.479Z,56.71
2023-02-27T01:19:35.550Z,56.77
2023-02-27T01:19:56.609Z,56.77
2023-02-27T01:20:17.698Z,56.81
2023-02-27T01:20:38.791Z,56.82
2023-02-27T01:20:59.843Z,56.83
2023-02-27T01:21:20.909Z,56.82
2023-02-27T01:21:42.013Z,56.83
2023-02-27T01:22:03.106Z,56.84
2023-02-27T01:22:24.185Z,56.84
2023-02-27T01:22:45.243Z,56.83
2023-02-27T01:23:06.309Z,56.90
2023-02-27T01:23:27.374Z,56.92
2023-02-27T01:23:48.437Z,56.98
2023-02-27T01:24:09.497Z,57.01
2023-02-27T01:24:30.581Z,57.02
2023-02-27T01:24:51.635Z,57.01
2023-02-27T01:25:12.725Z,57.03
2023-02-27T01:25:33.772Z,57.07
2023-02-27T01:25:54.867Z,57.19
2023-02-27T01:26:15.925Z,57.25
2023-02-27T01:26:36.987Z,57.32
2023-02-27T01:26:58.048Z,57.35
2023-02-27T01:27:19.101Z,57.34
2023-02-27T01:27:40.174Z,57.31
2023-02-27T01:28:01.230Z,57.26
2023-02-27T01:28:22.277Z,57.27
2023-02-27T01:28:43.342Z,57.23
2023-02-27T01:29:06.414Z,57.28
2023-02-27T01:29:27.606Z,57.31
2023-02-27T01:29:48.672Z,57.34
2023-02-27T01:30:09.771Z,57.30
2023-02-27T01:30:30.808Z,57.32
2023-02-27T01:30:51.861Z,57.28
2023-02-27T01:31:12.937Z,57.29
2023-02-27T01:31:34.083Z,57.23
2023-02-27T01:31:55.248Z,57.25
2023-02-27T01:32:16.356Z,57.21
2023-02-27T01:32:37.474Z,57.19
2023-02-27T01:32:58.562Z,57.19
2023-02-27T01:33:19.606Z,57.17
2023-02-27T01:33:40.683Z,57.18
2023-02-27T01:34:01.739Z,57.19
2023-02-27T01:34:22.799Z,57.20
2023-02-27T01:34:43.859Z,57.27
2023-02-27T01:35:04.939Z,57.27
2023-02-27T01:35:26.008Z,57.39
2023-02-27T01:35:47.088Z,57.47
2023-02-27T01:36:08.166Z,57.50
2023-02-27T01:36:29.196Z,57.49
2023-02-27T01:36:50.268Z,57.46
2023-02-27T01:37:11.345Z,57.49
2023-02-27T01:37:32.388Z,57.48
2023-02-27T01:37:53.452Z,57.51
2023-02-27T01:38:14.524Z,57.47
2023-02-27T01:38:35.586Z,57.45
2023-02-27T01:38:56.639Z,57.46
2023-02-27T01:39:17.734Z,57.42
2023-02-27T01:39:38.785Z,57.47
2023-02-27T01:39:59.840Z,57.55
2023-02-27T01:40:20.932Z,57.53
2023-02-27T01:40:41.998Z,57.54
2023-02-27T01:41:03.048Z,57.50
2023-02-27T01:41:24.340Z,57.47
2023-02-27T01:41:45.475Z,57.43
2023-02-27T01:42:06.520Z,57.43
2023-02-27T01:42:27.590Z,57.42
2023-02-27T01:42:48.647Z,57.41
2023-02-27T01:43:09.716Z,57.47
2023-02-27T01:43:30.788Z,57.45
2023-02-27T01:43:51.853Z,57.46
2023-02-27T01:44:12.937Z,57.44
2023-02-27T01:44:33.963Z,57.41
2023-02-27T01:44:55.046Z,57.42
2023-02-27T01:45:16.141Z,57.37
2023-02-27T01:45:37.232Z,57.37
2023-02-27T01:45:58.307Z,57.34
2023-02-27T01:46:19.364Z,57.38
2023-02-27T01:46:40.420Z,57.34
2023-02-27T01:47:01.476Z,57.31
2023-02-27T01:47:22.544Z,57.32
2023-02-27T01:47:43.628Z,57.31
2023-02-27T01:48:04.650Z,57.32
2023-02-27T01:48:25.698Z,57.29
2023-02-27T01:48:46.759Z,57.29
2023-02-27T01:49:07.849Z,57.26
2023-02-27T01:49:28.885Z,57.28
2023-02-27T01:49:49.956Z,57.25
2023-02-27T01:50:11.031Z,57.26
2023-02-27T01:50:32.090Z,57.28
2023-02-27T01:50:53.158Z,57.25
2023-02-27T01:51:14.284Z,57.26
2023-02-27T01:51:35.322Z,57.25
2023-02-27T01:51:56.413Z,57.25
2023-02-27T01:52:17.465Z,57.23
2023-02-27T01:52:38.502Z,57.18
2023-02-27T01:52:59.568Z,57.21
2023-02-27T01:53:23.487Z,57.21
2023-02-27T01:53:44.592Z,57.24
2023-02-27T01:54:05.620Z,57.23
2023-02-27T01:54:26.698Z,57.23
2023-02-27T01:54:47.757Z,57.22
2023-02-27T01:55:08.832Z,57.22
2023-02-27T01:55:29.890Z,57.24
2023-02-27T01:55:50.956Z,57.21
2023-02-27T01:56:12.041Z,57.23
2023-02-27T01:56:33.090Z,57.23
2023-02-27T01:56:54.166Z,57.22
2023-02-27T01:57:15.229Z,57.23
2023-02-27T01:57:36.308Z,57.19
2023-02-27T01:57:57.363Z,57.22
2023-02-27T01:58:18.416Z,57.19
2023-02-27T01:58:39.487Z,57.17
2023-02-27T01:59:00.525Z,57.18
2023-02-27T01:59:21.598Z,57.19
2023-02-27T01:59:42.656Z,57.21
2023-02-27T02:00:03.783Z,57.19
2023-02-27T02:00:24.840Z,57.17
2023-02-27T02:00:45.913Z,57.17
2023-02-27T02:01:06.989Z,57.12
2023-02-27T02:01:28.507Z,57.13
2023-02-27T02:01:49.693Z,57.17
2023-02-27T02:02:10.788Z,57.16
2023-02-27T02:02:31.861Z,57.14
2023-02-27T02:02:52.893Z,57.16
2023-02-27T02:03:13.967Z,57.16
2023-02-27T02:03:35.032Z,57.19
2023-02-27T02:03:56.094Z,57.14
2023-02-27T02:04:17.155Z,57.11
2023-02-27T02:04:38.200Z,57.07
2023-02-27T02:04:59.247Z,57.07
2023-02-27T02:05:20.331Z,57.01
2023-02-27T02:05:41.390Z,56.97
2023-02-27T02:06:02.442Z,56.97
2023-02-27T02:06:23.503Z,57.02
2023-02-27T02:06:44.603Z,57.05
2023-02-27T02:07:05.651Z,57.04
2023-02-27T02:07:26.755Z,57.04
2023-02-27T02:07:47.836Z,57.04
2023-02-27T02:08:08.899Z,57.03
2023-02-27T02:08:30.003Z,57.02
2023-02-27T02:08:51.078Z,57.00
2023-02-27T02:09:12.116Z,57.00
2023-02-27T02:09:33.183Z,56.97
2023-02-27T02:09:54.245Z,56.97
2023-02-27T02:10:15.304Z,57.00
2023-02-27T02:10:36.389Z,57.00
2023-02-27T02:10:57.438Z,57.00
2023-02-27T02:11:18.493Z,56.99
2023-02-27T02:11:39.538Z,56.94
2023-02-27T02:12:00.628Z,56.89
2023-02-27T02:12:21.684Z,56.92
2023-02-27T02:12:42.800Z,56.90
2023-02-27T02:13:03.834Z,56.90
2023-02-27T02:13:24.890Z,56.89
2023-02-27T02:13:45.946Z,56.86
2023-02-27T02:14:07.044Z,56.89
2023-02-27T02:14:28.095Z,56.87
2023-02-27T02:14:49.129Z,56.89
2023-02-27T02:15:10.205Z,56.92
2023-02-27T02:15:31.280Z,56.91
2023-02-27T02:15:52.355Z,56.97
2023-02-27T02:16:13.407Z,56.97
2023-02-27T02:16:34.545Z,57.00
2023-02-27T02:16:55.613Z,57.05
2023-02-27T02:17:16.683Z,57.07
2023-02-27T02:17:37.742Z,57.05
2023-02-27T02:17:58.817Z,56.99
2023-02-27T02:18:19.985Z,56.99
2023-02-27T02:18:41.060Z,57.04
2023-02-27T02:19:02.120Z,57.08
2023-02-27T02:19:23.216Z,57.06
2023-02-27T02:19:44.255Z,57.08
2023-02-27T02:20:05.317Z,57.06
2023-02-27T02:20:26.374Z,57.02
2023-02-27T02:20:47.456Z,57.03
2023-02-27T02:21:08.514Z,57.02
2023-02-27T02:21:29.608Z,57.06
2023-02-27T02:21:50.631Z,57.08
2023-02-27T02:22:11.684Z,57.12
2023-02-27T02:22:32.789Z,57.15
2023-02-27T02:22:53.853Z,57.15
2023-02-27T02:23:14.890Z,57.16
2023-02-27T02:23:35.958Z,57.15
2023-02-27T02:23:57.023Z,57.14
2023-02-27T02:24:18.080Z,57.14
2023-02-27T02:24:39.142Z,57.11
2023-02-27T02:25:00.236Z,57.08
2023-02-27T02:25:21.288Z,57.09
2023-02-27T02:25:42.341Z,57.05
2023-02-27T02:26:03.400Z,57.03
2023-02-27T02:26:25.029Z,57.03
2023-02-27T02:26:46.118Z,57.08
2023-02-27T02:27:07.175Z,57.09
2023-02-27T02:27:28.232Z,57.08
2023-02-27T02:27:49.353Z,57.07
2023-02-27T02:28:10.394Z,57.08
2023-02-27T02:28:31.463Z,57.06
2023-02-27T02:28:52.514Z,57.06
2023-02-27T02:29:13.612Z,57.05
2023-02-27T02:29:34.657Z,57.06
2023-02-27T02:29:55.704Z,57.09
2023-02-27T02:30:16.756Z,57.09
2023-02-27T02:30:38.022Z,57.08
2023-02-27T02:30:59.261Z,57.07
2023-02-27T02:31:20.446Z,57.06
2023-02-27T02:31:41.725Z,57.08
2023-02-27T02:32:02.991Z,57.08
2023-02-27T02:32:24.114Z,57.07
2023-02-27T02:32:45.156Z,57.06
2023-02-27T02:33:06.224Z,57.08
2023-02-27T02:33:27.287Z,57.09
2023-02-27T02:33:48.359Z,57.09
2023-02-27T02:34:09.416Z,57.08
2023-02-27T02:34:30.480Z,57.07
2023-02-27T02:34:51.535Z,57.10
2023-02-27T02:35:12.597Z,57.13
2023-02-27T02:35:33.657Z,57.15
2023-02-27T02:35:54.707Z,57.11
2023-02-27T02:36:15.781Z,57.13
2023-02-27T02:36:36.838Z,57.04
2023-02-27T02:36:57.894Z,57.05
2023-02-27T02:37:18.985Z,57.03
2023-02-27T02:37:40.050Z,57.01
2023-02-27T02:38:01.095Z,57.02
2023-02-27T02:38:22.180Z,57.04
2023-02-27T02:38:43.229Z,57.00
2023-02-27T02:39:04.312Z,57.06
2023-02-27T02:39:25.367Z,57.08
2023-02-27T02:39:46.432Z,57.11
2023-02-27T02:40:07.494Z,57.05
2023-02-27T02:40:28.530Z,57.03
2023-02-27T02:40:49.595Z,57.00
2023-02-27T02:41:10.659Z,57.01
2023-02-27T02:41:31.706Z,57.02
2023-02-27T02:41:52.770Z,57.06
2023-02-27T02:42:13.852Z,57.06
2023-02-27T02:42:34.899Z,57.08
2023-02-27T02:42:55.993Z,57.09
2023-02-27T02:43:17.049Z,57.08
2023-02-27T02:43:38.126Z,57.08
2023-02-27T02:43:59.166Z,57.05
2023-02-27T02:44:20.266Z,57.08
2023-02-27T02:44:41.309Z,57.10
2023-02-27T02:45:02.377Z,57.12
2023-02-27T02:45:23.424Z,57.12
2023-02-27T02:45:44.509Z,57.13
2023-02-27T02:46:05.607Z,57.16
2023-02-27T02:46:26.681Z,57.12
2023-02-27T02:46:47.716Z,57.08
2023-02-27T02:47:08.799Z,57.09
2023-02-27T02:47:29.863Z,57.08
2023-02-27T02:47:50.932Z,57.07
2023-02-27T02:48:11.979Z,57.04
2023-02-27T02:48:33.057Z,57.07
2023-02-27T02:48:54.164Z,57.04
2023-02-27T02:49:15.190Z,57.08
2023-02-27T02:49:36.243Z,57.06
2023-02-27T02:49:57.334Z,57.09
2023-02-27T02:50:18.395Z,57.10
2023-02-27T02:50:39.448Z,57.12
2023-02-27T02:51:00.513Z,57.10
2023-02-27T02:51:21.578Z,57.09
2023-02-27T02:51:42.653Z,57.06
2023-02-27T02:52:03.711Z,57.07
2023-02-27T02:52:24.764Z,57.04
2023-02-27T02:52:45.841Z,57.08
2023-02-27T02:53:06.891Z,57.08
2023-02-27T02:53:36.142Z,57.08
2023-02-27T02:53:54.931Z,57.09
2023-02-27T02:54:16.018Z,57.13
2023-02-27T02:54:37.082Z,57.10
2023-02-27T02:54:58.142Z,57.09
2023-02-27T02:55:19.191Z,57.10
2023-02-27T02:55:40.282Z,57.10
2023-02-27T02:56:01.335Z,57.11
2023-02-27T02:56:22.394Z,57.13
2023-02-27T02:56:43.452Z,57.17
2023-02-27T02:57:04.510Z,57.13
2023-02-27T02:57:25.568Z,57.17
2023-02-27T02:57:46.657Z,57.15
2023-02-27T02:58:07.705Z,57.18
2023-02-27T02:58:28.812Z,57.19
2023-02-27T02:58:49.849Z,57.25
2023-02-27T02:59:10.920Z,57.24
2023-02-27T02:59:31.997Z,57.23
2023-02-27T02:59:53.085Z,57.28
2023-02-27T03:00:14.126Z,57.32
2023-02-27T03:00:35.180Z,57.33
2023-02-27T03:00:56.260Z,57.35
2023-02-27T03:01:17.373Z,57.38
2023-02-27T03:01:38.481Z,57.43
2023-02-27T03:02:02.423Z,57.49
2023-02-27T03:02:23.529Z,57.57
2023-02-27T03:02:44.580Z,57.62
2023-02-27T03:03:05.618Z,57.62
2023-02-27T03:03:26.691Z,57.60
2023-02-27T03:03:47.734Z,57.59
2023-02-27T03:04:08.883Z,57.62
2023-02-27T03:04:30.083Z,57.61
2023-02-27T03:04:51.141Z,57.58
2023-02-27T03:05:12.217Z,57.60
2023-02-27T03:05:33.327Z,57.55
2023-02-27T03:05:54.370Z,57.56
2023-02-27T03:06:15.413Z,57.61
2023-02-27T03:06:36.479Z,57.54
2023-02-27T03:06:57.875Z,57.54
2023-02-27T03:07:18.979Z,57.54
2023-02-27T03:07:40.090Z,57.54
2023-02-27T03:08:01.146Z,57.53
2023-02-27T03:08:22.212Z,57.54
2023-02-27T03:08:43.305Z,57.54
2023-02-27T03:09:04.348Z,57.54
2023-02-27T03:09:25.465Z,57.53
2023-02-27T03:09:46.541Z,57.52
2023-02-27T03:10:07.623Z,57.51
2023-02-27T03:10:28.698Z,57.52
2023-02-27T03:10:49.728Z,57.51
2023-02-27T03:11:10.836Z,57.52
2023-02-27T03:11:31.893Z,57.52
2023-02-27T03:11:52.967Z,57.53
2023-02-27T03:12:14.047Z,57.54
2023-02-27T03:12:35.109Z,57.50
2023-02-27T03:12:57.754Z,57.56
2023-02-27T03:13:19.794Z,57.58
2023-02-27T03:13:40.857Z,57.57
2023-02-27T03:14:01.907Z,57.59
2023-02-27T03:14:22.971Z,57.61
2023-02-27T03:14:44.033Z,57.58
2023-02-27T03:15:05.103Z,57.60
2023-02-27T03:15:26.216Z,57.64
2023-02-27T03:15:47.287Z,57.63
2023-02-27T03:16:08.384Z,57.63
2023-02-27T03:16:29.406Z,57.63
2023-02-27T03:16:50.600Z,57.62
2023-02-27T03:17:11.658Z,57.62
2023-02-27T03:17:32.727Z,57.62
2023-02-27T03:17:53.774Z,57.61
2023-02-27T03:18:14.862Z,57.65
2023-02-27T03:18:35.891Z,57.59
2023-02-27T03:18:56.957Z,57.63
2023-02-27T03:19:18.129Z,57.60
2023-02-27T03:19:39.192Z,57.61
2023-02-27T03:20:00.260Z,57.61
2023-02-27T03:20:21.302Z,57.60
2023-02-27T03:20:42.389Z,57.61
2023-02-27T03:21:03.449Z,57.58
2023-02-27T03:21:24.590Z,57.62
2023-02-27T03:21:45.638Z,57.62
2023-02-27T03:22:06.684Z,57.59
2023-02-27T03:22:27.754Z,57.57
2023-02-27T03:22:48.833Z,57.55
2023-02-27T03:23:09.891Z,57.56
2023-02-27T03:23:30.936Z,57.55
2023-02-27T03:23:51.987Z,57.55
2023-02-27T03:24:13.046Z,57.57
2023-02-27T03:24:34.109Z,57.54
2023-02-27T03:24:55.199Z,57.58
2023-02-27T03:25:16.240Z,57.56
2023-02-27T03:25:37.283Z,57.55
2023-02-27T03:25:58.594Z,57.55
2023-02-27T03:26:19.629Z,57.50
2023-02-27T03:26:40.686Z,57.53
2023-02-27T03:27:01.755Z,57.59
2023-02-27T03:27:22.803Z,57.56
2023-02-27T03:27:43.868Z,57.57
2023-02-27T03:28:04.932Z,57.56
2023-02-27T03:28:25.994Z,57.54
2023-02-27T03:28:47.057Z,57.54
2023-02-27T03:29:08.118Z,57.51
2023-02-27T03:29:29.168Z,57.49
2023-02-27T03:29:50.241Z,57.43
2023-02-27T03:30:11.296Z,57.51
2023-02-27T03:30:32.377Z,57.49
2023-02-27T03:30:53.637Z,57.59
2023-02-27T03:31:14.892Z,57.64
2023-02-27T03:31:36.178Z,57.61
2023-02-27T03:31:57.314Z,57.62
2023-02-27T03:32:18.473Z,57.59
2023-02-27T03:32:39.549Z,57.62
2023-02-27T03:33:00.599Z,57.61
2023-02-27T03:33:21.664Z,57.59
2023-02-27T03:33:42.724Z,57.54
2023-02-27T03:34:03.785Z,57.55
2023-02-27T03:34:24.863Z,57.55
2023-02-27T03:34:45.918Z,57.56
2023-02-27T03:35:06.986Z,57.52
2023-02-27T03:35:28.026Z,57.52
2023-02-27T03:35:49.096Z,57.52
2023-02-27T03:36:10.149Z,57.58
2023-02-27T03:36:31.241Z,57.55
2023-02-27T03:36:52.292Z,57.55
2023-02-27T03:37:13.348Z,57.57
2023-02-27T03:37:34.402Z,57.54
2023-02-27T03:37:55.453Z,57.55
2023-02-27T03:38:16.529Z,57.53
2023-02-27T03:38:37.574Z,57.51
2023-02-27T03:38:58.665Z,57.58
2023-02-27T03:39:19.714Z,57.56
2023-02-27T03:39:40.764Z,57.58
2023-02-27T03:40:01.841Z,57.58
2023-02-27T03:40:22.890Z,57.53
2023-02-27T03:40:43.935Z,57.57
2023-02-27T03:41:05.002Z,57.54
2023-02-27T03:41:26.334Z,57.55
2023-02-27T03:41:47.507Z,57.56
2023-02-27T03:42:08.559Z,57.59
2023-02-27T03:42:29.619Z,57.58
2023-02-27T03:42:50.670Z,57.57
2023-02-27T03:43:11.749Z,57.60
2023-02-27T03:43:32.798Z,57.59
2023-02-27T03:43:53.847Z,57.56
2023-02-27T03:44:14.914Z,57.51
2023-02-27T03:44:35.977Z,57.52
2023-02-27T03:44:57.055Z,57.53
2023-02-27T03:45:18.087Z,57.53
2023-02-27T03:45:39.159Z,57.53
2023-02-27T03:46:00.218Z,57.52
2023-02-27T03:46:21.301Z,57.50
2023-02-27T03:46:42.443Z,57.55
2023-02-27T03:47:03.516Z,57.60
2023-02-27T03:47:24.568Z,57.62
2023-02-27T03:47:45.627Z,57.64
2023-02-27T03:48:06.677Z,57.64
2023-02-27T03:48:27.742Z,57.66
2023-02-27T03:48:48.827Z,57.74
2023-02-27T03:49:09.868Z,57.76
2023-02-27T03:49:30.938Z,57.79
2023-02-27T03:49:52.016Z,57.76
2023-02-27T03:50:13.104Z,57.79
2023-02-27T03:50:34.127Z,57.74
2023-02-27T03:50:55.173Z,57.71
2023-02-27T03:51:16.307Z,57.67
2023-02-27T03:51:37.324Z,57.67
2023-02-27T03:51:58.376Z,57.66
2023-02-27T03:52:19.501Z,57.65
2023-02-27T03:52:40.569Z,57.68
2023-02-27T03:53:01.607Z,57.75
2023-02-27T03:53:22.681Z,57.82
2023-02-27T03:53:43.728Z,57.96
2023-02-27T03:54:04.803Z,58.15
2023-02-27T03:54:25.844Z,58.25
2023-02-27T03:54:46.949Z,58.37
2023-02-27T03:55:08.003Z,58.52
2023-02-27T03:55:29.050Z,58.60
2023-02-27T03:55:50.102Z,58.66
2023-02-27T03:56:11.165Z,58.66
2023-02-27T03:56:32.226Z,58.65
2023-02-27T03:56:53.282Z,58.72
2023-02-27T03:57:14.340Z,58.71
2023-02-27T03:57:35.413Z,58.73
2023-02-27T03:57:56.472Z,58.69
2023-02-27T03:58:17.570Z,58.66
2023-02-27T03:58:38.619Z,58.57
2023-02-27T03:58:59.665Z,58.49
2023-02-27T03:59:20.734Z,58.40
2023-02-27T03:59:41.828Z,58.32
2023-02-27T04:00:02.884Z,58.36
2023-02-27T04:00:23.949Z,58.29
2023-02-27T04:00:45.007Z,58.35
2023-02-27T04:01:06.069Z,58.45
2023-02-27T04:01:27.482Z,58.55
2023-02-27T04:01:48.717Z,58.63
2023-02-27T04:02:09.849Z,58.64
2023-02-27T04:02:30.940Z,58.63
2023-02-27T04:02:52.022Z,58.63
2023-02-27T04:03:13.060Z,58.72
2023-02-27T04:03:34.106Z,58.80
2023-02-27T04:03:55.172Z,58.91
2023-02-27T04:04:16.230Z,58.99
2023-02-27T04:04:37.301Z,58.99
2023-02-27T04:04:58.359Z,58.95
2023-02-27T04:05:19.425Z,58.86
2023-02-27T04:05:40.509Z,58.86
2023-02-27T04:06:01.549Z,58.85
2023-02-27T04:06:22.620Z,58.87
2023-02-27T04:06:43.695Z,58.77
2023-02-27T04:07:04.760Z,58.75
2023-02-27T04:07:25.832Z,58.66
2023-02-27T04:07:46.902Z,58.69
2023-02-27T04:08:07.970Z,58.68
2023-02-27T04:08:29.056Z,58.69
2023-02-27T04:08:50.126Z,58.61
2023-02-27T04:09:11.183Z,58.56
2023-02-27T04:09:32.289Z,58.48
2023-02-27T04:09:53.324Z,58.47
2023-02-27T04:10:14.439Z,58.42
2023-02-27T04:10:35.477Z,58.41
2023-02-27T04:10:56.562Z,58.32
2023-02-27T04:11:17.631Z,58.25
2023-02-27T04:11:38.682Z,58.20
2023-02-27T04:11:59.739Z,58.15
2023-02-27T04:12:20.821Z,58.13
2023-02-27T04:12:42.454Z,58.20
2023-02-27T04:13:04.367Z,58.21
2023-02-27T04:13:25.446Z,58.31
2023-02-27T04:13:46.500Z,58.36
2023-02-27T04:14:07.564Z,58.47
2023-02-27T04:14:28.618Z,58.66
2023-02-27T04:14:49.671Z,58.75
2023-02-27T04:15:10.729Z,58.77
2023-02-27T04:15:31.805Z,58.69
2023-02-27T04:15:52.950Z,58.68
2023-02-27T04:16:14.093Z,58.58
2023-02-27T04:16:35.210Z,58.44
2023-02-27T04:16:56.256Z,58.36
2023-02-27T04:17:17.353Z,58.30
2023-02-27T04:17:38.381Z,58.24
2023-02-27T04:17:59.440Z,58.17
2023-02-27T04:18:20.505Z,58.17
2023-02-27T04:18:41.587Z,58.14
2023-02-27T04:19:02.628Z,58.14
2023-02-27T04:19:23.725Z,58.03
2023-02-27T04:19:44.784Z,57.90
2023-02-27T04:20:05.831Z,57.82
2023-02-27T04:20:26.908Z,57.78
2023-02-27T04:20:47.957Z,57.72
2023-02-27T04:21:09.053Z,57.68
2023-02-27T04:21:30.121Z,57.71
2023-02-27T04:21:51.145Z,57.75
2023-02-27T04:22:12.209Z,57.80
2023-02-27T04:22:33.282Z,57.88
2023-02-27T04:22:54.347Z,57.99
2023-02-27T04:23:15.478Z,58.06
2023-02-27T04:23:36.522Z,58.04
2023-02-27T04:23:57.606Z,58.03
2023-02-27T04:24:18.652Z,58.04
2023-02-27T04:24:39.705Z,58.07
2023-02-27T04:25:00.761Z,58.11
2023-02-27T04:25:21.866Z,58.15
2023-02-27T04:25:42.910Z,58.07
2023-02-27T04:26:03.956Z,58.01
2023-02-27T04:26:25.027Z,57.91
2023-02-27T04:26:46.069Z,57.81
2023-02-27T04:27:07.146Z,57.75
2023-02-27T04:27:28.204Z,57.73
2023-02-27T04:27:49.281Z,57.70
2023-02-27T04:28:10.328Z,57.69
2023-02-27T04:28:31.415Z,57.66
2023-02-27T04:28:52.478Z,57.61
2023-02-27T04:29:13.562Z,57.66
2023-02-27T04:29:34.616Z,57.71
2023-02-27T04:29:55.717Z,57.75
2023-02-27T04:30:16.776Z,57.73
2023-02-27T04:30:37.873Z,57.78
2023-02-27T04:30:58.928Z,57.77
2023-02-27T04:31:20.062Z,57.75
2023-02-27T04:31:41.183Z,57.69